createdAt,value
2023-01-13T00:01:30.130Z,8.11
2023-01-13T00:06:31.620Z,8.13
2023-01-13T00:11:32.937Z,8.05
2023-01-13T00:16:34.189Z,8.11
2023-01-13T00:21:36.459Z,8.21
2023-01-13T00:26:37.711Z,8.17
2023-01-13T00:31:39.061Z,8.21
2023-01-13T00:36:40.363Z,8.29
2023-01-13T00:42:00.306Z,8.25
2023-01-13T00:47:01.727Z,8.09
2023-01-13T00:52:03.019Z,8.15
2023-01-13T00:57:04.229Z,8.09
2023-01-13T01:02:05.768Z,8.01
2023-01-13T01:07:07.119Z,7.98
2023-01-13T01:12:08.386Z,8.04
2023-01-13T01:17:09.637Z,8.04
2023-01-13T01:22:10.890Z,8.00
2023-01-13T01:27:12.098Z,7.95
2023-01-13T01:32:13.305Z,7.88
2023-01-13T01:37:14.617Z,7.96
2023-01-13T01:42:34.693Z,7.93
2023-01-13T01:47:35.922Z,8.15
2023-01-13T01:52:37.802Z,8.26
2023-01-13T01:57:40.215Z,8.29
2023-01-13T02:02:42.781Z,8.28
2023-01-13T02:07:44.125Z,8.11
2023-01-13T02:12:45.403Z,8.06
2023-01-13T02:17:47.547Z,8.12
2023-01-13T02:22:48.831Z,8.06
2023-01-13T02:27:50.079Z,8.18
2023-01-13T02:32:52.084Z,8.05
2023-01-13T02:37:53.448Z,8.20
2023-01-13T02:43:13.780Z,8.10
2023-01-13T02:48:15.438Z,8.26
2023-01-13T02:53:16.740Z,8.10
2023-01-13T02:58:18.014Z,7.97
2023-01-13T03:03:19.283Z,8.15
2023-01-13T03:08:20.522Z,8.15
2023-01-13T03:13:21.785Z,8.20
2023-01-13T03:18:23.029Z,8.27
2023-01-13T03:23:24.311Z,8.33
2023-01-13T03:28:25.611Z,8.39
2023-01-13T03:33:26.927Z,8.51
2023-01-13T03:38:28.228Z,8.43
2023-01-13T03:43:48.416Z,8.53
2023-01-13T03:48:49.695Z,8.62
2023-01-13T03:53:51.000Z,8.68
2023-01-13T03:58:52.349Z,8.83
2023-01-13T04:03:53.751Z,8.88
2023-01-13T04:08:55.125Z,8.67
2023-01-13T04:13:56.427Z,8.72
2023-01-13T04:18:57.680Z,8.74
2023-01-13T04:23:58.972Z,8.79
2023-01-13T04:29:00.309Z,8.75
2023-01-13T04:34:01.551Z,8.83
2023-01-13T04:39:03.049Z,8.94
2023-01-13T04:44:04.456Z,9.04
2023-01-13T04:49:05.728Z,9.06
2023-01-13T04:54:07.002Z,9.07
2023-01-13T04:59:08.749Z,9.02
2023-01-13T05:04:10.057Z,8.99
2023-01-13T05:09:12.329Z,9.00
2023-01-13T05:14:32.468Z,8.99
2023-01-13T05:19:33.892Z,9.03
2023-01-13T05:24:54.042Z,9.05
2023-01-13T05:29:55.374Z,9.04
2023-01-13T05:34:56.735Z,8.97
2023-01-13T05:40:16.899Z,9.11
2023-01-13T05:45:18.431Z,9.07
2023-01-13T05:50:19.715Z,9.11
2023-01-13T05:55:20.948Z,9.11
2023-01-13T06:00:22.169Z,9.00
2023-01-13T06:05:23.552Z,9.07
2023-01-13T06:10:24.922Z,9.07
2023-01-13T06:15:26.192Z,9.24
2023-01-13T06:20:27.626Z,9.11
2023-01-13T06:25:31.813Z,9.17
2023-01-13T06:35:59.347Z,9.17
2023-01-13T06:41:00.672Z,9.22
2023-01-13T06:46:02.591Z,9.16
2023-01-13T06:51:03.868Z,9.21
2023-01-13T06:56:05.123Z,9.17
2023-01-13T07:01:06.514Z,9.21
2023-01-13T07:06:07.996Z,9.32
2023-01-13T07:11:09.269Z,9.41
2023-01-13T07:16:10.773Z,9.52
2023-01-13T07:21:13.329Z,9.29
2023-01-13T07:26:14.648Z,9.41
2023-01-13T07:31:16.103Z,9.44
2023-01-13T07:36:17.498Z,9.29
2023-01-13T07:41:37.698Z,9.31
2023-01-13T07:46:39.012Z,9.40
2023-01-13T07:51:40.382Z,9.37
2023-01-13T07:56:41.650Z,9.38
2023-01-13T08:01:43.192Z,9.40
2023-01-13T08:06:44.747Z,9.46
2023-01-13T08:12:06.182Z,9.44
2023-01-13T08:17:07.643Z,9.42
2023-01-13T08:22:16.604Z,9.47
2023-01-13T08:27:19.460Z,9.63
2023-01-13T08:32:20.732Z,9.73
2023-01-13T08:37:21.963Z,9.57
2023-01-13T08:42:23.228Z,9.47
2023-01-13T08:47:24.559Z,9.44
2023-01-13T08:52:25.837Z,9.56
2023-01-13T08:57:27.151Z,9.64
2023-01-13T09:02:28.731Z,9.65
2023-01-13T09:07:30.027Z,9.67
2023-01-13T09:12:50.106Z,9.71
2023-01-13T09:17:51.494Z,9.59
2023-01-13T09:22:52.833Z,9.60
2023-01-13T09:27:54.148Z,9.62
2023-01-13T09:33:15.368Z,9.64
2023-01-13T09:38:16.649Z,9.56
2023-01-13T09:43:36.719Z,9.67
2023-01-13T09:48:53.768Z,9.77
2023-01-13T09:53:58.951Z,9.73
2023-01-13T09:59:00.296Z,9.76
2023-01-13T10:04:01.610Z,9.89
2023-01-13T10:09:02.932Z,10.07
2023-01-13T10:14:04.239Z,9.95
2023-01-13T10:19:05.503Z,10.27
2023-01-13T10:24:07.678Z,10.30
2023-01-13T10:29:08.940Z,10.38
2023-01-13T10:34:10.204Z,10.45
2023-01-13T10:39:11.621Z,10.64
2023-01-13T10:44:12.897Z,10.62
2023-01-13T10:49:14.148Z,10.75
2023-01-13T10:54:15.398Z,10.78
2023-01-13T10:59:16.646Z,10.98
2023-01-13T11:04:17.912Z,10.83
2023-01-13T11:09:19.194Z,10.65
2023-01-13T11:14:39.320Z,10.42
2023-01-13T11:19:41.112Z,10.15
2023-01-13T11:24:42.393Z,9.82
2023-01-13T11:29:43.706Z,10.08
2023-01-13T11:40:10.758Z,10.02
2023-01-13T11:45:12.041Z,9.84
2023-01-13T11:50:13.338Z,9.83
2023-01-13T11:55:14.606Z,9.26
2023-01-13T12:00:15.996Z,8.31
2023-01-13T12:05:17.245Z,8.13
2023-01-13T12:10:21.211Z,8.10
2023-01-13T12:15:22.529Z,8.02
2023-01-13T12:20:25.084Z,8.53
2023-01-13T12:25:26.453Z,8.72
2023-01-13T12:30:27.815Z,9.05
2023-01-13T12:35:29.129Z,8.82
2023-01-13T12:40:30.502Z,8.79
2023-01-13T12:45:31.867Z,8.77
2023-01-13T12:50:36.309Z,8.50
2023-01-13T12:55:37.564Z,8.74
2023-01-13T13:00:38.932Z,8.54
2023-01-13T13:05:40.246Z,8.23
2023-01-13T13:10:41.568Z,8.35
2023-01-13T13:15:42.929Z,8.34
2023-01-13T13:20:44.411Z,8.16
2023-01-13T13:25:45.677Z,8.19
2023-01-13T13:30:46.917Z,8.36
2023-01-13T13:35:51.952Z,8.81
2023-01-13T13:41:11.757Z,9.20
2023-01-13T13:46:31.543Z,9.21
2023-01-13T13:51:38.422Z,8.95
2023-01-13T13:56:40.452Z,8.99
2023-01-13T14:01:41.976Z,8.92
2023-01-13T14:06:43.313Z,8.80
2023-01-13T14:11:46.128Z,8.55
2023-01-13T14:16:47.983Z,8.67
2023-01-13T14:21:49.625Z,8.57
2023-01-13T14:26:53.080Z,8.67
2023-01-13T14:31:54.440Z,8.53
2023-01-13T14:36:55.768Z,8.48
2023-01-13T14:41:57.018Z,8.11
2023-01-13T14:46:58.300Z,7.68
2023-01-13T14:51:59.500Z,8.16
2023-01-13T14:57:00.923Z,8.42
2023-01-13T15:02:02.371Z,8.10
2023-01-13T15:07:03.697Z,8.31
2023-01-13T15:12:04.938Z,8.11
2023-01-13T15:17:06.168Z,7.80
2023-01-13T15:22:07.462Z,8.13
2023-01-13T15:27:08.696Z,8.38
2023-01-13T15:32:09.915Z,8.07
2023-01-13T15:37:11.131Z,8.31
2023-01-13T15:42:31.186Z,8.08
2023-01-13T15:47:32.405Z,8.03
2023-01-13T15:52:33.639Z,8.10
2023-01-13T15:57:34.912Z,7.95
2023-01-13T16:02:36.123Z,7.78
2023-01-13T16:07:37.350Z,7.80
2023-01-13T16:12:38.600Z,7.74
2023-01-13T16:17:39.812Z,7.73
2023-01-13T16:22:41.180Z,7.71
2023-01-13T16:27:42.439Z,7.71
2023-01-13T16:32:44.131Z,7.79
2023-01-13T16:37:47.130Z,7.81
2023-01-13T16:42:48.338Z,8.54
2023-01-13T16:47:49.672Z,8.10
2023-01-13T16:52:50.933Z,7.71
2023-01-13T16:57:52.208Z,7.57
2023-01-13T17:02:53.423Z,7.53
2023-01-13T17:07:54.691Z,7.44
2023-01-13T17:12:56.123Z,7.48
2023-01-13T17:17:58.344Z,7.52
2023-01-13T17:22:59.628Z,7.55
2023-01-13T17:28:00.892Z,7.49
2023-01-13T17:33:02.146Z,7.56
2023-01-13T17:38:03.395Z,7.68
2023-01-13T17:43:04.687Z,7.19
2023-01-13T17:48:06.092Z,7.31
2023-01-13T17:53:07.341Z,7.15
2023-01-13T17:58:08.590Z,7.09
2023-01-13T18:03:09.857Z,6.92
2023-01-13T18:08:11.184Z,6.87
2023-01-13T18:13:12.513Z,6.92
2023-01-13T18:18:13.867Z,7.12
2023-01-13T18:23:34.194Z,6.89
2023-01-13T18:28:35.474Z,6.74
2023-01-13T18:33:36.760Z,6.61
2023-01-13T18:38:38.056Z,6.39
2023-01-13T18:43:39.311Z,6.51
2023-01-13T18:48:40.609Z,6.36
2023-01-13T18:53:41.893Z,6.19
2023-01-13T18:58:49.388Z,5.87
2023-01-13T19:03:50.680Z,5.87
2023-01-13T19:08:53.489Z,5.85
2023-01-13T19:13:54.705Z,5.66
2023-01-13T19:24:11.180Z,5.33
2023-01-13T19:29:12.508Z,5.43
2023-01-13T19:34:13.827Z,5.46
2023-01-13T19:39:15.127Z,5.47
2023-01-13T19:44:35.159Z,5.51
2023-01-13T19:49:36.512Z,5.68
2023-01-13T19:54:37.728Z,5.74
2023-01-13T19:59:41.001Z,5.97
2023-01-13T20:04:44.869Z,6.01
2023-01-13T20:09:46.086Z,6.00
2023-01-13T20:14:50.373Z,5.98
2023-01-13T20:19:51.608Z,5.87
2023-01-13T20:24:55.264Z,5.87
2023-01-13T20:29:56.603Z,5.79
2023-01-13T20:34:57.837Z,5.83
2023-01-13T20:40:01.685Z,5.94
2023-01-13T20:45:02.994Z,5.90
2023-01-13T20:50:04.284Z,5.94
2023-01-13T20:55:05.805Z,6.06
2023-01-13T21:00:07.010Z,6.13
2023-01-13T21:05:09.260Z,6.06
2023-01-13T21:10:11.417Z,6.26
2023-01-13T21:15:20.085Z,6.30
2023-01-13T21:20:21.402Z,6.16
2023-01-13T21:25:22.657Z,6.19
2023-01-13T21:30:23.897Z,6.15
2023-01-13T21:35:25.160Z,6.30
2023-01-13T21:40:26.419Z,6.16
2023-01-13T21:45:46.532Z,6.07
2023-01-13T21:50:47.826Z,6.12
2023-01-13T21:55:49.101Z,6.03
2023-01-13T22:00:50.515Z,6.11
2023-01-13T22:05:51.811Z,6.45
2023-01-13T22:11:00.097Z,6.27
2023-01-13T22:16:01.421Z,6.15
2023-01-13T22:21:02.766Z,6.03
2023-01-13T22:26:04.036Z,6.12
2023-01-13T22:31:05.439Z,6.08
2023-01-13T22:36:06.875Z,6.11
2023-01-13T22:41:08.311Z,6.08
2023-01-13T22:46:09.741Z,6.07
2023-01-13T22:51:11.225Z,6.01
2023-01-13T22:56:12.460Z,5.93
2023-01-13T23:01:13.810Z,5.89
2023-01-13T23:06:15.182Z,5.80
2023-01-13T23:11:16.539Z,5.72
2023-01-13T23:16:18.994Z,5.63
2023-01-13T23:21:20.299Z,5.79
2023-01-13T23:26:21.634Z,5.75
2023-01-13T23:31:22.856Z,5.85
2023-01-13T23:36:24.258Z,5.91
2023-01-13T23:41:25.504Z,5.82
2023-01-13T23:46:27.074Z,5.90
2023-01-13T23:51:30.026Z,6.09
2023-01-13T23:56:31.415Z,6.22
